sensor_id;sensor_type;location;lat;lon;timestamp;P1;durP1;ratioP1;P2;durP2;ratioP2
21140;SDS011;10728;53.284;10.314;2022-09-12T00:01:18;2.70;;;2.30;;
21140;SDS011;10728;53.284;10.314;2022-09-12T00:03:49;3.50;;;2.30;;
21140;SDS011;10728;53.284;10.314;2022-09-12T00:06:18;2.70;;;2.50;;
21140;SDS011;10728;53.284;10.314;2022-09-12T00:08:54;3.17;;;2.60;;
21140;SDS011;10728;53.284;10.314;2022-09-12T00:11:25;2.77;;;2.57;;
21140;SDS011;10728;53.284;10.314;2022-09-12T00:13:51;2.53;;;2.33;;
21140;SDS011;10728;53.284;10.314;2022-09-12T00:16:21;2.90;;;2.67;;
21140;SDS011;10728;53.284;10.314;2022-09-12T00:18:48;2.70;;;2.50;;
21140;SDS011;10728;53.284;10.314;2022-09-12T00:21:14;2.50;;;2.30;;
21140;SDS011;10728;53.284;10.314;2022-09-12T00:23:40;2.57;;;2.37;;
21140;SDS011;10728;53.284;10.314;2022-09-12T00:26:06;3.33;;;2.40;;
21140;SDS011;10728;53.284;10.314;2022-09-12T00:28:33;4.57;;;2.67;;
21140;SDS011;10728;53.284;10.314;2022-09-12T00:30:59;2.43;;;2.23;;
21140;SDS011;10728;53.284;10.314;2022-09-12T00:33:29;2.60;;;2.37;;
21140;SDS011;10728;53.284;10.314;2022-09-12T00:35:55;7.10;;;2.70;;
21140;SDS011;10728;53.284;10.314;2022-09-12T00:38:20;4.40;;;2.70;;
21140;SDS011;10728;53.284;10.314;2022-09-12T00:40:46;2.50;;;2.30;;
21140;SDS011;10728;53.284;10.314;2022-09-12T00:43:13;2.47;;;2.27;;
21140;SDS011;10728;53.284;10.314;2022-09-12T00:45:39;3.00;;;2.37;;
21140;SDS011;10728;53.284;10.314;2022-09-12T00:48:07;3.07;;;2.80;;
21140;SDS011;10728;53.284;10.314;2022-09-12T00:50:45;3.37;;;2.70;;
21140;SDS011;10728;53.284;10.314;2022-09-12T00:53:10;2.47;;;2.27;;
21140;SDS011;10728;53.284;10.314;2022-09-12T00:55:42;2.67;;;2.47;;
21140;SDS011;10728;53.284;10.314;2022-09-12T00:58:21;3.10;;;2.80;;
21140;SDS011;10728;53.284;10.314;2022-09-12T01:00:47;2.97;;;2.50;;
21140;SDS011;10728;53.284;10.314;2022-09-12T01:03:15;2.40;;;2.20;;
21140;SDS011;10728;53.284;10.314;2022-09-12T01:05:43;3.60;;;2.53;;
21140;SDS011;10728;53.284;10.314;2022-09-12T01:08:14;3.20;;;2.87;;
21140;SDS011;10728;53.284;10.314;2022-09-12T01:10:40;4.10;;;2.40;;
21140;SDS011;10728;53.284;10.314;2022-09-12T01:13:07;2.70;;;2.50;;
21140;SDS011;10728;53.284;10.314;2022-09-12T01:15:33;2.20;;;2.00;;
21140;SDS011;10728;53.284;10.314;2022-09-12T01:20:38;2.40;;;2.20;;
21140;SDS011;10728;53.284;10.314;2022-09-12T01:32:26;2.63;;;2.43;;
21140;SDS011;10728;53.284;10.314;2022-09-12T01:38:33;2.67;;;2.30;;
21140;SDS011;10728;53.284;10.314;2022-09-12T01:47:16;2.60;;;2.40;;
21140;SDS011;10728;53.284;10.314;2022-09-12T01:49:25;3.00;;;2.23;;
21140;SDS011;10728;53.284;10.314;2022-09-12T01:52:13;4.43;;;2.30;;
21140;SDS011;10728;53.284;10.314;2022-09-12T01:55:25;3.33;;;2.83;;
21140;SDS011;10728;53.284;10.314;2022-09-12T01:57:36;2.73;;;2.20;;
21140;SDS011;10728;53.284;10.314;2022-09-12T02:00:05;3.47;;;2.17;;
21140;SDS011;10728;53.284;10.314;2022-09-12T02:02:39;2.90;;;2.60;;
21140;SDS011;10728;53.284;10.314;2022-09-12T02:05:19;2.53;;;2.33;;
21140;SDS011;10728;53.284;10.314;2022-09-12T02:07:57;2.47;;;2.27;;
21140;SDS011;10728;53.284;10.314;2022-09-12T02:10:32;2.70;;;2.50;;
21140;SDS011;10728;53.284;10.314;2022-09-12T02:13:03;2.83;;;2.30;;
21140;SDS011;10728;53.284;10.314;2022-09-12T02:15:33;2.20;;;2.00;;
21140;SDS011;10728;53.284;10.314;2022-09-12T02:18:03;2.40;;;2.20;;
21140;SDS011;10728;53.284;10.314;2022-09-12T02:20:31;2.43;;;2.23;;
21140;SDS011;10728;53.284;10.314;2022-09-12T02:22:58;2.17;;;1.97;;
21140;SDS011;10728;53.284;10.314;2022-09-12T02:25:24;2.60;;;1.93;;
21140;SDS011;10728;53.284;10.314;2022-09-12T02:30:18;2.60;;;2.40;;
21140;SDS011;10728;53.284;10.314;2022-09-12T02:33:00;2.57;;;2.37;;
21140;SDS011;10728;53.284;10.314;2022-09-12T02:35:47;2.07;;;1.97;;
21140;SDS011;10728;53.284;10.314;2022-09-12T02:38:21;2.20;;;2.00;;
21140;SDS011;10728;53.284;10.314;2022-09-12T02:40:51;2.43;;;1.90;;
21140;SDS011;10728;53.284;10.314;2022-09-12T02:43:16;2.10;;;1.90;;
21140;SDS011;10728;53.284;10.314;2022-09-12T02:45:42;2.00;;;1.80;;
21140;SDS011;10728;53.284;10.314;2022-09-12T02:48:09;2.17;;;1.80;;
21140;SDS011;10728;53.284;10.314;2022-09-12T02:50:41;3.10;;;1.70;;
21140;SDS011;10728;53.284;10.314;2022-09-12T02:53:07;1.77;;;1.67;;
21140;SDS011;10728;53.284;10.314;2022-09-12T02:55:34;7.33;;;1.50;;
21140;SDS011;10728;53.284;10.314;2022-09-12T02:58:01;6.10;;;5.50;;
21140;SDS011;10728;53.284;10.314;2022-09-12T03:00:32;1.60;;;1.50;;
21140;SDS011;10728;53.284;10.314;2022-09-12T03:06:48;1.70;;;1.60;;
21140;SDS011;10728;53.284;10.314;2022-09-12T03:09:04;1.97;;;1.60;;
21140;SDS011;10728;53.284;10.314;2022-09-12T03:11:44;1.63;;;1.53;;
21140;SDS011;10728;53.284;10.314;2022-09-12T03:14:27;1.93;;;1.80;;
21140;SDS011;10728;53.284;10.314;2022-09-12T03:23:23;2.73;;;1.90;;
21140;SDS011;10728;53.284;10.314;2022-09-12T03:25:57;2.70;;;2.30;;
21140;SDS011;10728;53.284;10.314;2022-09-12T03:28:28;2.40;;;2.20;;
21140;SDS011;10728;53.284;10.314;2022-09-12T03:30:54;2.40;;;1.90;;
21140;SDS011;10728;53.284;10.314;2022-09-12T03:33:21;2.03;;;1.27;;
21140;SDS011;10728;53.284;10.314;2022-09-12T03:35:49;0.83;;;0.83;;
21140;SDS011;10728;53.284;10.314;2022-09-12T03:38:15;1.40;;;1.30;;
21140;SDS011;10728;53.284;10.314;2022-09-12T03:40:41;3.03;;;2.17;;
21140;SDS011;10728;53.284;10.314;2022-09-12T03:43:07;1.43;;;1.23;;
21140;SDS011;10728;53.284;10.314;2022-09-12T03:45:33;1.13;;;1.03;;
21140;SDS011;10728;53.284;10.314;2022-09-12T03:48:00;0.60;;;0.60;;
21140;SDS011;10728;53.284;10.314;2022-09-12T03:50:25;2.07;;;1.87;;
21140;SDS011;10728;53.284;10.314;2022-09-12T03:52:51;1.97;;;1.80;;
21140;SDS011;10728;53.284;10.314;2022-09-12T03:55:16;2.00;;;1.80;;
21140;SDS011;10728;53.284;10.314;2022-09-12T03:57:42;2.63;;;2.00;;
21140;SDS011;10728;53.284;10.314;2022-09-12T04:00:08;0.33;;;0.33;;
21140;SDS011;10728;53.284;10.314;2022-09-12T04:02:41;1.37;;;1.27;;
21140;SDS011;10728;53.284;10.314;2022-09-12T04:05:07;2.30;;;1.80;;
21140;SDS011;10728;53.284;10.314;2022-09-12T04:07:32;1.40;;;1.30;;
21140;SDS011;10728;53.284;10.314;2022-09-12T04:09:58;1.40;;;1.30;;
21140;SDS011;10728;53.284;10.314;2022-09-12T04:12:23;1.50;;;1.40;;
21140;SDS011;10728;53.284;10.314;2022-09-12T04:14:48;1.60;;;1.50;;
21140;SDS011;10728;53.284;10.314;2022-09-12T04:17:14;1.50;;;1.40;;
21140;SDS011;10728;53.284;10.314;2022-09-12T04:19:39;1.97;;;1.50;;
21140;SDS011;10728;53.284;10.314;2022-09-12T04:22:05;6.47;;;1.60;;
21140;SDS011;10728;53.284;10.314;2022-09-12T04:24:30;1.60;;;1.47;;
21140;SDS011;10728;53.284;10.314;2022-09-12T04:26:56;3.63;;;1.97;;
21140;SDS011;10728;53.284;10.314;2022-09-12T04:29:25;2.73;;;1.80;;
21140;SDS011;10728;53.284;10.314;2022-09-12T04:31:51;1.90;;;1.80;;
21140;SDS011;10728;53.284;10.314;2022-09-12T04:34:17;2.10;;;1.90;;
21140;SDS011;10728;53.284;10.314;2022-09-12T04:36:42;1.80;;;1.70;;
21140;SDS011;10728;53.284;10.314;2022-09-12T04:39:09;3.50;;;2.30;;
21140;SDS011;10728;53.284;10.314;2022-09-12T04:41:36;2.50;;;2.23;;
21140;SDS011;10728;53.284;10.314;2022-09-12T04:44:04;2.87;;;1.93;;
21140;SDS011;10728;53.284;10.314;2022-09-12T04:46:35;2.13;;;1.93;;
21140;SDS011;10728;53.284;10.314;2022-09-12T04:49:03;2.27;;;2.03;;
21140;SDS011;10728;53.284;10.314;2022-09-12T04:51:30;2.30;;;2.10;;
21140;SDS011;10728;53.284;10.314;2022-09-12T04:54:03;1.90;;;1.70;;
21140;SDS011;10728;53.284;10.314;2022-09-12T04:56:35;2.10;;;1.90;;
21140;SDS011;10728;53.284;10.314;2022-09-12T04:59:02;2.23;;;2.03;;
21140;SDS011;10728;53.284;10.314;2022-09-12T05:01:28;2.23;;;2.03;;
21140;SDS011;10728;53.284;10.314;2022-09-12T05:03:54;2.10;;;1.83;;
21140;SDS011;10728;53.284;10.314;2022-09-12T05:06:21;2.87;;;2.17;;
21140;SDS011;10728;53.284;10.314;2022-09-12T05:08:48;1.97;;;1.77;;
21140;SDS011;10728;53.284;10.314;2022-09-12T05:11:15;1.97;;;1.80;;
21140;SDS011;10728;53.284;10.314;2022-09-12T05:13:42;2.13;;;1.93;;
21140;SDS011;10728;53.284;10.314;2022-09-12T05:16:11;2.10;;;1.90;;
21140;SDS011;10728;53.284;10.314;2022-09-12T05:18:39;2.60;;;1.90;;
21140;SDS011;10728;53.284;10.314;2022-09-12T05:21:05;2.43;;;2.23;;
21140;SDS011;10728;53.284;10.314;2022-09-12T05:23:32;2.07;;;1.90;;
21140;SDS011;10728;53.284;10.314;2022-09-12T05:25:58;1.87;;;1.60;;
21140;SDS011;10728;53.284;10.314;2022-09-12T05:28:27;9.67;;;8.97;;
21140;SDS011;10728;53.284;10.314;2022-09-12T05:33:33;1.60;;;1.50;;
21140;SDS011;10728;53.284;10.314;2022-09-12T05:36:00;1.50;;;1.40;;
21140;SDS011;10728;53.284;10.314;2022-09-12T05:38:25;1.80;;;1.70;;
21140;SDS011;10728;53.284;10.314;2022-09-12T05:40:53;2.00;;;1.80;;
21140;SDS011;10728;53.284;10.314;2022-09-12T05:43:27;1.57;;;1.47;;
21140;SDS011;10728;53.284;10.314;2022-09-12T05:45:58;1.40;;;1.30;;
21140;SDS011;10728;53.284;10.314;2022-09-12T05:48:25;1.37;;;1.27;;
21140;SDS011;10728;53.284;10.314;2022-09-12T05:50:50;1.70;;;1.40;;
21140;SDS011;10728;53.284;10.314;2022-09-12T05:53:16;1.50;;;1.40;;
21140;SDS011;10728;53.284;10.314;2022-09-12T05:55:41;1.73;;;1.63;;
21140;SDS011;10728;53.284;10.314;2022-09-12T05:58:06;1.80;;;1.70;;
21140;SDS011;10728;53.284;10.314;2022-09-12T06:00:32;2.30;;;1.90;;
21140;SDS011;10728;53.284;10.314;2022-09-12T06:02:57;3.43;;;3.13;;
21140;SDS011;10728;53.284;10.314;2022-09-12T06:05:23;2.60;;;2.40;;
21140;SDS011;10728;53.284;10.314;2022-09-12T06:07:49;2.10;;;1.93;;
21140;SDS011;10728;53.284;10.314;2022-09-12T06:10:14;3.53;;;2.80;;
21140;SDS011;10728;53.284;10.314;2022-09-12T06:12:40;5.10;;;4.60;;
21140;SDS011;10728;53.284;10.314;2022-09-12T06:15:06;5.37;;;3.30;;
21140;SDS011;10728;53.284;10.314;2022-09-12T06:17:32;4.83;;;4.00;;
21140;SDS011;10728;53.284;10.314;2022-09-12T06:19:57;4.90;;;4.40;;
21140;SDS011;10728;53.284;10.314;2022-09-12T06:22:22;6.40;;;4.53;;
21140;SDS011;10728;53.284;10.314;2022-09-12T06:24:48;6.50;;;4.80;;
21140;SDS011;10728;53.284;10.314;2022-09-12T06:27:13;6.83;;;5.00;;
21140;SDS011;10728;53.284;10.314;2022-09-12T06:29:39;5.20;;;4.70;;
21140;SDS011;10728;53.284;10.314;2022-09-12T06:32:04;4.53;;;4.07;;
21140;SDS011;10728;53.284;10.314;2022-09-12T06:34:31;4.87;;;3.90;;
21140;SDS011;10728;53.284;10.314;2022-09-12T06:36:57;4.00;;;3.30;;
21140;SDS011;10728;53.284;10.314;2022-09-12T06:39:23;3.60;;;3.30;;
21140;SDS011;10728;53.284;10.314;2022-09-12T06:41:49;3.03;;;2.47;;
21140;SDS011;10728;53.284;10.314;2022-09-12T06:44:16;3.07;;;2.27;;
21140;SDS011;10728;53.284;10.314;2022-09-12T06:46:42;2.30;;;2.10;;
21140;SDS011;10728;53.284;10.314;2022-09-12T06:49:08;3.47;;;2.40;;
21140;SDS011;10728;53.284;10.314;2022-09-12T06:51:34;2.50;;;2.30;;
21140;SDS011;10728;53.284;10.314;2022-09-12T06:54:02;3.47;;;2.57;;
21140;SDS011;10728;53.284;10.314;2022-09-12T06:56:28;6.03;;;2.30;;
21140;SDS011;10728;53.284;10.314;2022-09-12T06:58:57;2.73;;;2.37;;
21140;SDS011;10728;53.284;10.314;2022-09-12T07:01:27;2.33;;;2.13;;
21140;SDS011;10728;53.284;10.314;2022-09-12T07:03:54;4.90;;;2.20;;
21140;SDS011;10728;53.284;10.314;2022-09-12T07:06:22;2.63;;;2.23;;
21140;SDS011;10728;53.284;10.314;2022-09-12T07:08:48;4.03;;;2.60;;
21140;SDS011;10728;53.284;10.314;2022-09-12T07:13:40;2.40;;;2.20;;
21140;SDS011;10728;53.284;10.314;2022-09-12T07:16:06;3.03;;;2.50;;
21140;SDS011;10728;53.284;10.314;2022-09-12T07:18:32;4.50;;;2.90;;
21140;SDS011;10728;53.284;10.314;2022-09-12T07:21:02;3.63;;;3.00;;
21140;SDS011;10728;53.284;10.314;2022-09-12T07:23:29;5.00;;;3.60;;
21140;SDS011;10728;53.284;10.314;2022-09-12T07:25:55;4.93;;;2.80;;
21140;SDS011;10728;53.284;10.314;2022-09-12T07:28:26;7.45;;;3.80;;
21140;SDS011;10728;53.284;10.314;2022-09-12T07:30:52;5.93;;;5.55;;
21140;SDS011;10728;53.284;10.314;2022-09-12T07:33:19;8.77;;;5.68;;
21140;SDS011;10728;53.284;10.314;2022-09-12T07:35:48;6.18;;;5.57;;
21140;SDS011;10728;53.284;10.314;2022-09-12T07:38:13;185.23;;;114.93;;
21140;SDS011;10728;53.284;10.314;2022-09-12T07:40:40;134.18;;;80.28;;
21140;SDS011;10728;53.284;10.314;2022-09-12T07:43:05;315.35;;;215.07;;
21140;SDS011;10728;53.284;10.314;2022-09-12T07:45:30;234.43;;;152.00;;
21140;SDS011;10728;53.284;10.314;2022-09-12T07:47:56;49.88;;;37.05;;
21140;SDS011;10728;53.284;10.314;2022-09-12T07:50:21;26.98;;;21.92;;
21140;SDS011;10728;53.284;10.314;2022-09-12T07:52:47;11.93;;;10.32;;
21140;SDS011;10728;53.284;10.314;2022-09-12T07:55:12;8.70;;;7.78;;
21140;SDS011;10728;53.284;10.314;2022-09-12T07:57:38;8.10;;;6.22;;
21140;SDS011;10728;53.284;10.314;2022-09-12T08:00:03;8.35;;;7.07;;
21140;SDS011;10728;53.284;10.314;2022-09-12T08:02:37;7.90;;;5.75;;
21140;SDS011;10728;53.284;10.314;2022-09-12T08:05:02;6.00;;;5.20;;
21140;SDS011;10728;53.284;10.314;2022-09-12T08:07:28;4.85;;;4.25;;
21140;SDS011;10728;53.284;10.314;2022-09-12T08:09:54;4.40;;;3.97;;
21140;SDS011;10728;53.284;10.314;2022-09-12T08:12:19;6.18;;;4.40;;
21140;SDS011;10728;53.284;10.314;2022-09-12T08:14:44;3.90;;;3.20;;
21140;SDS011;10728;53.284;10.314;2022-09-12T08:17:10;5.75;;;5.15;;
21140;SDS011;10728;53.284;10.314;2022-09-12T08:19:36;5.47;;;3.90;;
21140;SDS011;10728;53.284;10.314;2022-09-12T08:22:02;7.90;;;5.07;;
21140;SDS011;10728;53.284;10.314;2022-09-12T08:24:28;4.95;;;4.45;;
21140;SDS011;10728;53.284;10.314;2022-09-12T08:26:53;3.75;;;3.42;;
21140;SDS011;10728;53.284;10.314;2022-09-12T08:29:19;1.50;;;1.40;;
21140;SDS011;10728;53.284;10.314;2022-09-12T08:31:45;1.60;;;1.50;;
21140;SDS011;10728;53.284;10.314;2022-09-12T08:34:11;3.10;;;2.80;;
21140;SDS011;10728;53.284;10.314;2022-09-12T08:36:36;4.07;;;3.00;;
21140;SDS011;10728;53.284;10.314;2022-09-12T08:39:03;2.90;;;2.70;;
21140;SDS011;10728;53.284;10.314;2022-09-12T08:49:22;3.75;;;2.72;;
21140;SDS011;10728;53.284;10.314;2022-09-12T08:52:11;3.53;;;2.85;;
21140;SDS011;10728;53.284;10.314;2022-09-12T08:54:38;3.78;;;3.00;;
21140;SDS011;10728;53.284;10.314;2022-09-12T08:57:04;2.63;;;2.20;;
21140;SDS011;10728;53.284;10.314;2022-09-12T08:59:42;4.60;;;2.80;;
21140;SDS011;10728;53.284;10.314;2022-09-12T09:02:23;3.17;;;2.75;;
21140;SDS011;10728;53.284;10.314;2022-09-12T09:05:00;3.72;;;2.70;;
21140;SDS011;10728;53.284;10.314;2022-09-12T09:13:47;1.25;;;1.15;;
21140;SDS011;10728;53.284;10.314;2022-09-12T09:16:37;1.50;;;1.40;;
21140;SDS011;10728;53.284;10.314;2022-09-12T09:19:10;2.08;;;1.88;;
21140;SDS011;10728;53.284;10.314;2022-09-12T09:24:11;2.58;;;1.83;;
21140;SDS011;10728;53.284;10.314;2022-09-12T09:26:49;2.13;;;1.92;;
21140;SDS011;10728;53.284;10.314;2022-09-12T09:29:21;2.00;;;1.38;;
21140;SDS011;10728;53.284;10.314;2022-09-12T09:31:53;1.75;;;1.50;;
21140;SDS011;10728;53.284;10.314;2022-09-12T09:34:22;1.27;;;1.17;;
21140;SDS011;10728;53.284;10.314;2022-09-12T09:39:53;1.77;;;1.67;;
21140;SDS011;10728;53.284;10.314;2022-09-12T09:42:24;1.50;;;1.40;;
21140;SDS011;10728;53.284;10.314;2022-09-12T09:44:55;1.50;;;1.40;;
21140;SDS011;10728;53.284;10.314;2022-09-12T09:47:22;1.23;;;1.10;;
21140;SDS011;10728;53.284;10.314;2022-09-12T09:49:48;1.20;;;1.10;;
21140;SDS011;10728;53.284;10.314;2022-09-12T09:52:15;2.53;;;0.88;;
21140;SDS011;10728;53.284;10.314;2022-09-12T09:59:58;5.47;;;5.18;;
21140;SDS011;10728;53.284;10.314;2022-09-12T10:02:23;2.10;;;1.55;;
21140;SDS011;10728;53.284;10.314;2022-09-12T10:04:54;4.32;;;4.13;;
21140;SDS011;10728;53.284;10.314;2022-09-12T10:07:21;2.90;;;1.40;;
21140;SDS011;10728;53.284;10.314;2022-09-12T10:12:40;1.27;;;1.17;;
21140;SDS011;10728;53.284;10.314;2022-09-12T10:15:16;4.38;;;1.20;;
21140;SDS011;10728;53.284;10.314;2022-09-12T10:17:43;2.65;;;2.55;;
21140;SDS011;10728;53.284;10.314;2022-09-12T10:22:54;2.30;;;1.50;;
21140;SDS011;10728;53.284;10.314;2022-09-12T10:25:19;1.40;;;1.30;;
21140;SDS011;10728;53.284;10.314;2022-09-12T10:27:54;1.40;;;1.30;;
21140;SDS011;10728;53.284;10.314;2022-09-12T10:30:21;1.35;;;1.20;;
21140;SDS011;10728;53.284;10.314;2022-09-12T10:32:52;1.20;;;1.10;;
21140;SDS011;10728;53.284;10.314;2022-09-12T10:35:21;1.77;;;1.15;;
21140;SDS011;10728;53.284;10.314;2022-09-12T10:40:27;1.23;;;1.10;;
21140;SDS011;10728;53.284;10.314;2022-09-12T10:43:00;0.82;;;0.80;;
21140;SDS011;10728;53.284;10.314;2022-09-12T10:45:32;0.88;;;0.80;;
21140;SDS011;10728;53.284;10.314;2022-09-12T10:48:24;0.75;;;0.75;;
21140;SDS011;10728;53.284;10.314;2022-09-12T10:50:55;2.55;;;0.90;;
21140;SDS011;10728;53.284;10.314;2022-09-12T10:53:31;1.17;;;1.00;;
21140;SDS011;10728;53.284;10.314;2022-09-12T11:01:43;1.75;;;1.00;;
21140;SDS011;10728;53.284;10.314;2022-09-12T11:07:07;1.83;;;0.98;;
21140;SDS011;10728;53.284;10.314;2022-09-12T11:17:55;4.38;;;1.08;;
21140;SDS011;10728;53.284;10.314;2022-09-12T11:20:50;1.27;;;0.70;;
21140;SDS011;10728;53.284;10.314;2022-09-12T11:34:38;1.70;;;0.60;;
21140;SDS011;10728;53.284;10.314;2022-09-12T11:40:22;1.98;;;1.17;;
21140;SDS011;10728;53.284;10.314;2022-09-12T11:42:52;0.90;;;0.90;;
21140;SDS011;10728;53.284;10.314;2022-09-12T11:45:42;2.50;;;1.10;;
21140;SDS011;10728;53.284;10.314;2022-09-12T11:48:15;1.10;;;0.90;;
21140;SDS011;10728;53.284;10.314;2022-09-12T11:50:49;1.20;;;1.10;;
21140;SDS011;10728;53.284;10.314;2022-09-12T11:53:22;1.67;;;1.15;;
21140;SDS011;10728;53.284;10.314;2022-09-12T11:55:54;1.67;;;1.00;;
21140;SDS011;10728;53.284;10.314;2022-09-12T11:58:25;1.63;;;0.85;;
21140;SDS011;10728;53.284;10.314;2022-09-12T12:00:55;1.48;;;1.00;;
21140;SDS011;10728;53.284;10.314;2022-09-12T12:06:18;1.60;;;1.20;;
21140;SDS011;10728;53.284;10.314;2022-09-12T12:08:46;1.00;;;0.90;;
21140;SDS011;10728;53.284;10.314;2022-09-12T12:14:06;1.17;;;1.08;;
21140;SDS011;10728;53.284;10.314;2022-09-12T12:16:39;2.58;;;1.00;;
21140;SDS011;10728;53.284;10.314;2022-09-12T12:19:28;2.90;;;1.10;;
21140;SDS011;10728;53.284;10.314;2022-09-12T12:21:56;2.10;;;0.90;;
21140;SDS011;10728;53.284;10.314;2022-09-12T12:24:30;22.02;;;18.08;;
21140;SDS011;10728;53.284;10.314;2022-09-12T12:27:02;8.98;;;6.60;;
21140;SDS011;10728;53.284;10.314;2022-09-12T12:29:47;5.25;;;3.47;;
21140;SDS011;10728;53.284;10.314;2022-09-12T12:34:45;1.30;;;1.20;;
21140;SDS011;10728;53.284;10.314;2022-09-12T12:42:08;2.10;;;1.25;;
21140;SDS011;10728;53.284;10.314;2022-09-12T12:47:13;1.13;;;1.00;;
21140;SDS011;10728;53.284;10.314;2022-09-12T12:49:58;1.88;;;1.10;;
21140;SDS011;10728;53.284;10.314;2022-09-12T12:52:27;1.40;;;1.20;;
21140;SDS011;10728;53.284;10.314;2022-09-12T12:54:55;1.40;;;1.30;;
21140;SDS011;10728;53.284;10.314;2022-09-12T12:57:26;7.55;;;5.88;;
21140;SDS011;10728;53.284;10.314;2022-09-12T12:59:58;4.47;;;2.22;;
21140;SDS011;10728;53.284;10.314;2022-09-12T13:04:53;2.45;;;1.30;;
21140;SDS011;10728;53.284;10.314;2022-09-12T13:07:37;1.05;;;0.95;;
21140;SDS011;10728;53.284;10.314;2022-09-12T13:10:04;0.90;;;0.90;;
21140;SDS011;10728;53.284;10.314;2022-09-12T13:12:49;1.38;;;1.08;;
21140;SDS011;10728;53.284;10.314;2022-09-12T13:18:00;0.90;;;0.90;;
21140;SDS011;10728;53.284;10.314;2022-09-12T13:20:35;2.45;;;2.00;;
21140;SDS011;10728;53.284;10.314;2022-09-12T13:23:02;1.90;;;1.25;;
21140;SDS011;10728;53.284;10.314;2022-09-12T13:30:27;2.38;;;1.80;;
21140;SDS011;10728;53.284;10.314;2022-09-12T13:33:01;1.63;;;1.08;;
21140;SDS011;10728;53.284;10.314;2022-09-12T13:38:27;3.10;;;1.30;;
21140;SDS011;10728;53.284;10.314;2022-09-12T13:41:02;5.50;;;4.13;;
21140;SDS011;10728;53.284;10.314;2022-09-12T13:43:35;36.63;;;24.92;;
21140;SDS011;10728;53.284;10.314;2022-09-12T13:46:03;25.08;;;20.20;;
21140;SDS011;10728;53.284;10.314;2022-09-12T13:48:30;8.98;;;6.78;;
21140;SDS011;10728;53.284;10.314;2022-09-12T13:51:01;4.13;;;3.65;;
21140;SDS011;10728;53.284;10.314;2022-09-12T13:53:35;2.25;;;1.50;;
21140;SDS011;10728;53.284;10.314;2022-09-12T13:56:06;3.72;;;1.67;;
21140;SDS011;10728;53.284;10.314;2022-09-12T13:58:32;0.90;;;0.90;;
21140;SDS011;10728;53.284;10.314;2022-09-12T14:01:06;1.02;;;0.93;;
21140;SDS011;10728;53.284;10.314;2022-09-12T14:03:41;2.33;;;1.30;;
21140;SDS011;10728;53.284;10.314;2022-09-12T14:06:33;3.25;;;1.38;;
21140;SDS011;10728;53.284;10.314;2022-09-12T14:09:01;2.25;;;0.95;;
21140;SDS011;10728;53.284;10.314;2022-09-12T14:11:27;0.95;;;0.90;;
21140;SDS011;10728;53.284;10.314;2022-09-12T14:13:54;3.22;;;1.30;;
21140;SDS011;10728;53.284;10.314;2022-09-12T14:16:20;2.70;;;1.10;;
21140;SDS011;10728;53.284;10.314;2022-09-12T14:18:47;1.40;;;1.30;;
21140;SDS011;10728;53.284;10.314;2022-09-12T14:21:33;2.92;;;1.50;;
21140;SDS011;10728;53.284;10.314;2022-09-12T14:24:00;3.65;;;1.50;;
21140;SDS011;10728;53.284;10.314;2022-09-12T14:26:27;1.50;;;1.40;;
21140;SDS011;10728;53.284;10.314;2022-09-12T14:28:56;2.80;;;1.63;;
21140;SDS011;10728;53.284;10.314;2022-09-12T14:31:22;1.73;;;1.30;;
21140;SDS011;10728;53.284;10.314;2022-09-12T14:36:33;2.80;;;1.70;;
21140;SDS011;10728;53.284;10.314;2022-09-12T14:39:01;2.75;;;1.40;;
21140;SDS011;10728;53.284;10.314;2022-09-12T14:41:31;1.92;;;1.50;;
21140;SDS011;10728;53.284;10.314;2022-09-12T14:43:59;2.53;;;1.58;;
21140;SDS011;10728;53.284;10.314;2022-09-12T14:49:01;2.83;;;1.77;;
21140;SDS011;10728;53.284;10.314;2022-09-12T14:51:33;1.55;;;1.45;;
21140;SDS011;10728;53.284;10.314;2022-09-12T14:54:00;1.63;;;1.52;;
21140;SDS011;10728;53.284;10.314;2022-09-12T15:04:44;2.95;;;2.00;;
21140;SDS011;10728;53.284;10.314;2022-09-12T15:10:01;1.90;;;1.80;;
21140;SDS011;10728;53.284;10.314;2022-09-12T15:12:28;2.63;;;1.80;;
21140;SDS011;10728;53.284;10.314;2022-09-12T15:15:00;2.65;;;1.92;;
21140;SDS011;10728;53.284;10.314;2022-09-12T15:17:40;2.70;;;1.98;;
21140;SDS011;10728;53.284;10.314;2022-09-12T15:20:06;3.88;;;2.03;;
21140;SDS011;10728;53.284;10.314;2022-09-12T15:22:32;1.90;;;1.73;;
21140;SDS011;10728;53.284;10.314;2022-09-12T15:24:58;4.40;;;1.80;;
21140;SDS011;10728;53.284;10.314;2022-09-12T15:27:24;3.55;;;1.92;;
21140;SDS011;10728;53.284;10.314;2022-09-12T15:29:53;3.03;;;2.00;;
21140;SDS011;10728;53.284;10.314;2022-09-12T15:32:22;2.88;;;1.90;;
21140;SDS011;10728;53.284;10.314;2022-09-12T15:34:52;4.13;;;2.00;;
21140;SDS011;10728;53.284;10.314;2022-09-12T15:37:18;2.03;;;1.83;;
21140;SDS011;10728;53.284;10.314;2022-09-12T15:39:45;2.40;;;2.20;;
21140;SDS011;10728;53.284;10.314;2022-09-12T15:42:11;2.90;;;2.25;;
21140;SDS011;10728;53.284;10.314;2022-09-12T15:44:37;2.55;;;2.20;;
21140;SDS011;10728;53.284;10.314;2022-09-12T15:47:02;3.35;;;2.10;;
21140;SDS011;10728;53.284;10.314;2022-09-12T15:49:28;4.15;;;2.50;;
21140;SDS011;10728;53.284;10.314;2022-09-12T15:51:54;2.38;;;2.17;;
21140;SDS011;10728;53.284;10.314;2022-09-12T15:54:19;2.60;;;2.22;;
21140;SDS011;10728;53.284;10.314;2022-09-12T15:56:45;3.63;;;2.20;;
21140;SDS011;10728;53.284;10.314;2022-09-12T15:59:11;2.97;;;2.30;;
21140;SDS011;10728;53.284;10.314;2022-09-12T16:01:37;2.97;;;2.10;;
21140;SDS011;10728;53.284;10.314;2022-09-12T16:04:05;2.60;;;2.40;;
21140;SDS011;10728;53.284;10.314;2022-09-12T16:06:43;3.42;;;2.10;;
21140;SDS011;10728;53.284;10.314;2022-09-12T16:09:08;3.05;;;2.47;;
21140;SDS011;10728;53.284;10.314;2022-09-12T16:11:34;6.88;;;2.50;;
21140;SDS011;10728;53.284;10.314;2022-09-12T16:13:59;3.47;;;2.47;;
21140;SDS011;10728;53.284;10.314;2022-09-12T16:16:25;2.90;;;2.70;;
21140;SDS011;10728;53.284;10.314;2022-09-12T16:18:51;4.43;;;2.38;;
21140;SDS011;10728;53.284;10.314;2022-09-12T16:21:16;2.92;;;2.53;;
21140;SDS011;10728;53.284;10.314;2022-09-12T16:23:42;2.92;;;2.33;;
21140;SDS011;10728;53.284;10.314;2022-09-12T16:26:08;5.25;;;4.80;;
21140;SDS011;10728;53.284;10.314;2022-09-12T16:28:33;3.05;;;2.55;;
21140;SDS011;10728;53.284;10.314;2022-09-12T16:31:00;4.38;;;3.20;;
21140;SDS011;10728;53.284;10.314;2022-09-12T16:33:27;8.52;;;6.20;;
21140;SDS011;10728;53.284;10.314;2022-09-12T16:36:00;5.40;;;2.75;;
21140;SDS011;10728;53.284;10.314;2022-09-12T16:38:27;10.27;;;3.50;;
21140;SDS011;10728;53.284;10.314;2022-09-12T16:40:58;4.57;;;4.28;;
21140;SDS011;10728;53.284;10.314;2022-09-12T16:43:24;3.63;;;2.80;;
21140;SDS011;10728;53.284;10.314;2022-09-12T16:46:02;4.90;;;2.78;;
21140;SDS011;10728;53.284;10.314;2022-09-12T16:48:29;2.95;;;2.75;;
21140;SDS011;10728;53.284;10.314;2022-09-12T16:50:55;4.10;;;2.78;;
21140;SDS011;10728;53.284;10.314;2022-09-12T16:53:26;3.10;;;2.80;;
21140;SDS011;10728;53.284;10.314;2022-09-12T16:55:54;3.30;;;3.03;;
21140;SDS011;10728;53.284;10.314;2022-09-12T16:58:19;3.00;;;2.50;;
21140;SDS011;10728;53.284;10.314;2022-09-12T17:00:45;5.00;;;2.85;;
21140;SDS011;10728;53.284;10.314;2022-09-12T17:03:10;3.15;;;2.67;;
21140;SDS011;10728;53.284;10.314;2022-09-12T17:05:36;3.28;;;2.53;;
21140;SDS011;10728;53.284;10.314;2022-09-12T17:08:02;4.70;;;2.80;;
21140;SDS011;10728;53.284;10.314;2022-09-12T17:10:27;3.20;;;2.72;;
21140;SDS011;10728;53.284;10.314;2022-09-12T17:12:54;2.38;;;2.17;;